sensor_id;sensor_type;location;lat;lon;timestamp;P1;durP1;ratioP1;P2;durP2;ratioP2
77099;SDS011;66602;48.922;2.414;2023-09-12T00:02:04;3.70;;;3.50;;
77099;SDS011;66602;48.922;2.414;2023-09-12T00:04:30;3.97;;;3.55;;
77099;SDS011;66602;48.922;2.414;2023-09-12T00:06:55;3.78;;;3.40;;
77099;SDS011;66602;48.922;2.414;2023-09-12T00:09:21;5.38;;;3.58;;
77099;SDS011;66602;48.922;2.414;2023-09-12T00:11:47;4.35;;;3.95;;
77099;SDS011;66602;48.922;2.414;2023-09-12T00:14:16;3.72;;;3.42;;
77099;SDS011;66602;48.922;2.414;2023-09-12T00:16:42;3.90;;;3.70;;
77099;SDS011;66602;48.922;2.414;2023-09-12T00:19:07;4.60;;;3.53;;
77099;SDS011;66602;48.922;2.414;2023-09-12T00:21:33;4.57;;;3.95;;
77099;SDS011;66602;48.922;2.414;2023-09-12T00:23:58;3.92;;;3.72;;
77099;SDS011;66602;48.922;2.414;2023-09-12T00:26:24;3.70;;;3.50;;
77099;SDS011;66602;48.922;2.414;2023-09-12T00:28:49;5.90;;;3.80;;
77099;SDS011;66602;48.922;2.414;2023-09-12T00:31:15;4.13;;;3.72;;
77099;SDS011;66602;48.922;2.414;2023-09-12T00:33:40;4.68;;;4.40;;
77099;SDS011;66602;48.922;2.414;2023-09-12T00:36:06;4.70;;;4.05;;
77099;SDS011;66602;48.922;2.414;2023-09-12T00:38:31;6.20;;;4.07;;
77099;SDS011;66602;48.922;2.414;2023-09-12T00:40:57;4.97;;;4.47;;
77099;SDS011;66602;48.922;2.414;2023-09-12T00:43:22;4.32;;;4.00;;
77099;SDS011;66602;48.922;2.414;2023-09-12T00:45:48;5.20;;;4.43;;
77099;SDS011;66602;48.922;2.414;2023-09-12T00:48:14;4.63;;;4.28;;
77099;SDS011;66602;48.922;2.414;2023-09-12T00:50:40;5.38;;;4.38;;
77099;SDS011;66602;48.922;2.414;2023-09-12T00:53:07;4.88;;;4.57;;
77099;SDS011;66602;48.922;2.414;2023-09-12T00:55:33;4.63;;;4.32;;
77099;SDS011;66602;48.922;2.414;2023-09-12T00:58:00;5.13;;;4.80;;
77099;SDS011;66602;48.922;2.414;2023-09-12T01:00:26;5.53;;;5.03;;
77099;SDS011;66602;48.922;2.414;2023-09-12T01:02:52;4.88;;;4.47;;
77099;SDS011;66602;48.922;2.414;2023-09-12T01:05:19;4.85;;;4.35;;
77099;SDS011;66602;48.922;2.414;2023-09-12T01:07:46;5.50;;;4.93;;
77099;SDS011;66602;48.922;2.414;2023-09-12T01:10:12;9.13;;;5.28;;
77099;SDS011;66602;48.922;2.414;2023-09-12T01:12:38;12.60;;;6.07;;
77099;SDS011;66602;48.922;2.414;2023-09-12T01:15:04;6.22;;;5.80;;
77099;SDS011;66602;48.922;2.414;2023-09-12T01:17:35;5.68;;;5.28;;
77099;SDS011;66602;48.922;2.414;2023-09-12T01:20:01;6.05;;;5.50;;
77099;SDS011;66602;48.922;2.414;2023-09-12T01:22:37;6.63;;;5.60;;
77099;SDS011;66602;48.922;2.414;2023-09-12T01:27:42;6.85;;;6.18;;
77099;SDS011;66602;48.922;2.414;2023-09-12T01:30:17;6.60;;;5.70;;
77099;SDS011;66602;48.922;2.414;2023-09-12T01:32:46;6.75;;;6.22;;
77099;SDS011;66602;48.922;2.414;2023-09-12T01:35:12;7.88;;;5.88;;
77099;SDS011;66602;48.922;2.414;2023-09-12T01:37:38;5.90;;;5.40;;
77099;SDS011;66602;48.922;2.414;2023-09-12T01:40:04;6.60;;;6.00;;
77099;SDS011;66602;48.922;2.414;2023-09-12T01:42:35;7.30;;;6.00;;
77099;SDS011;66602;48.922;2.414;2023-09-12T01:45:03;7.15;;;6.75;;
77099;SDS011;66602;48.922;2.414;2023-09-12T01:47:29;7.97;;;6.13;;
77099;SDS011;66602;48.922;2.414;2023-09-12T01:49:55;7.93;;;7.28;;
77099;SDS011;66602;48.922;2.414;2023-09-12T01:52:23;8.82;;;6.95;;
77099;SDS011;66602;48.922;2.414;2023-09-12T01:54:50;7.50;;;6.82;;
77099;SDS011;66602;48.922;2.414;2023-09-12T01:57:16;7.97;;;7.40;;
77099;SDS011;66602;48.922;2.414;2023-09-12T01:59:45;9.27;;;7.25;;
77099;SDS011;66602;48.922;2.414;2023-09-12T02:02:12;9.38;;;7.20;;
77099;SDS011;66602;48.922;2.414;2023-09-12T02:04:38;7.85;;;7.15;;
77099;SDS011;66602;48.922;2.414;2023-09-12T02:07:03;7.18;;;6.57;;
77099;SDS011;66602;48.922;2.414;2023-09-12T02:09:29;8.45;;;7.72;;
77099;SDS011;66602;48.922;2.414;2023-09-12T02:11:54;7.88;;;6.32;;
77099;SDS011;66602;48.922;2.414;2023-09-12T02:14:20;8.38;;;7.70;;
77099;SDS011;66602;48.922;2.414;2023-09-12T02:16:45;7.43;;;6.78;;
77099;SDS011;66602;48.922;2.414;2023-09-12T02:19:11;8.15;;;7.32;;
77099;SDS011;66602;48.922;2.414;2023-09-12T02:21:36;9.90;;;8.93;;
77099;SDS011;66602;48.922;2.414;2023-09-12T02:24:02;9.60;;;8.68;;
77099;SDS011;66602;48.922;2.414;2023-09-12T02:26:28;10.43;;;8.73;;
77099;SDS011;66602;48.922;2.414;2023-09-12T02:28:53;9.27;;;8.32;;
77099;SDS011;66602;48.922;2.414;2023-09-12T02:31:18;8.90;;;8.25;;
77099;SDS011;66602;48.922;2.414;2023-09-12T02:33:44;10.20;;;9.18;;
77099;SDS011;66602;48.922;2.414;2023-09-12T02:36:10;10.20;;;8.40;;
77099;SDS011;66602;48.922;2.414;2023-09-12T02:38:35;11.35;;;9.20;;
77099;SDS011;66602;48.922;2.414;2023-09-12T02:41:01;10.95;;;9.95;;
77099;SDS011;66602;48.922;2.414;2023-09-12T02:43:27;10.50;;;9.60;;
77099;SDS011;66602;48.922;2.414;2023-09-12T02:45:53;10.02;;;9.02;;
77099;SDS011;66602;48.922;2.414;2023-09-12T02:48:19;10.57;;;9.32;;
77099;SDS011;66602;48.922;2.414;2023-09-12T02:50:44;10.20;;;9.02;;
77099;SDS011;66602;48.922;2.414;2023-09-12T02:53:10;9.77;;;8.98;;
77099;SDS011;66602;48.922;2.414;2023-09-12T02:55:39;10.23;;;9.20;;
77099;SDS011;66602;48.922;2.414;2023-09-12T02:58:06;10.20;;;9.10;;
77099;SDS011;66602;48.922;2.414;2023-09-12T03:00:31;9.68;;;8.30;;
77099;SDS011;66602;48.922;2.414;2023-09-12T03:02:57;10.30;;;9.23;;
77099;SDS011;66602;48.922;2.414;2023-09-12T03:05:22;18.70;;;9.88;;
77099;SDS011;66602;48.922;2.414;2023-09-12T03:07:47;13.15;;;9.85;;
77099;SDS011;66602;48.922;2.414;2023-09-12T03:10:14;10.38;;;9.38;;
77099;SDS011;66602;48.922;2.414;2023-09-12T03:12:39;12.40;;;9.43;;
77099;SDS011;66602;48.922;2.414;2023-09-12T03:15:05;9.43;;;8.68;;
77099;SDS011;66602;48.922;2.414;2023-09-12T03:17:31;9.82;;;8.15;;
77099;SDS011;66602;48.922;2.414;2023-09-12T03:19:57;9.95;;;9.15;;
77099;SDS011;66602;48.922;2.414;2023-09-12T03:22:22;12.90;;;10.15;;
77099;SDS011;66602;48.922;2.414;2023-09-12T03:24:48;10.93;;;9.80;;
77099;SDS011;66602;48.922;2.414;2023-09-12T03:27:13;10.52;;;9.55;;
77099;SDS011;66602;48.922;2.414;2023-09-12T03:29:39;12.98;;;9.45;;
77099;SDS011;66602;48.922;2.414;2023-09-12T03:32:04;17.00;;;9.88;;
77099;SDS011;66602;48.922;2.414;2023-09-12T03:34:30;13.68;;;10.23;;
77099;SDS011;66602;48.922;2.414;2023-09-12T03:36:55;14.00;;;10.30;;
77099;SDS011;66602;48.922;2.414;2023-09-12T03:39:21;14.82;;;10.48;;
77099;SDS011;66602;48.922;2.414;2023-09-12T03:41:46;11.40;;;9.70;;
77099;SDS011;66602;48.922;2.414;2023-09-12T03:44:12;9.75;;;8.90;;
77099;SDS011;66602;48.922;2.414;2023-09-12T03:46:37;12.80;;;10.52;;
77099;SDS011;66602;48.922;2.414;2023-09-12T03:49:03;10.80;;;9.90;;
77099;SDS011;66602;48.922;2.414;2023-09-12T03:51:28;11.10;;;9.98;;
77099;SDS011;66602;48.922;2.414;2023-09-12T03:53:54;11.57;;;10.05;;
77099;SDS011;66602;48.922;2.414;2023-09-12T03:56:19;16.35;;;10.65;;
77099;SDS011;66602;48.922;2.414;2023-09-12T03:58:45;11.68;;;10.57;;
77099;SDS011;66602;48.922;2.414;2023-09-12T04:01:11;13.10;;;9.93;;
77099;SDS011;66602;48.922;2.414;2023-09-12T04:03:36;13.98;;;10.23;;
77099;SDS011;66602;48.922;2.414;2023-09-12T04:06:02;10.85;;;10.02;;
77099;SDS011;66602;48.922;2.414;2023-09-12T04:08:27;10.18;;;9.27;;
77099;SDS011;66602;48.922;2.414;2023-09-12T04:10:53;10.50;;;9.50;;
77099;SDS011;66602;48.922;2.414;2023-09-12T04:13:18;10.43;;;9.55;;
77099;SDS011;66602;48.922;2.414;2023-09-12T04:15:44;10.18;;;9.13;;
77099;SDS011;66602;48.922;2.414;2023-09-12T04:18:09;11.95;;;10.65;;
77099;SDS011;66602;48.922;2.414;2023-09-12T04:20:35;12.57;;;10.48;;
77099;SDS011;66602;48.922;2.414;2023-09-12T04:23:01;11.55;;;10.02;;
77099;SDS011;66602;48.922;2.414;2023-09-12T04:25:30;11.82;;;10.85;;
77099;SDS011;66602;48.922;2.414;2023-09-12T04:27:56;11.77;;;10.63;;
77099;SDS011;66602;48.922;2.414;2023-09-12T04:30:21;9.95;;;9.15;;
77099;SDS011;66602;48.922;2.414;2023-09-12T04:32:47;10.00;;;8.77;;
77099;SDS011;66602;48.922;2.414;2023-09-12T04:35:12;13.73;;;10.52;;
77099;SDS011;66602;48.922;2.414;2023-09-12T04:37:38;12.95;;;10.98;;
77099;SDS011;66602;48.922;2.414;2023-09-12T04:40:03;15.85;;;10.95;;
77099;SDS011;66602;48.922;2.414;2023-09-12T04:42:31;11.20;;;10.00;;
77099;SDS011;66602;48.922;2.414;2023-09-12T04:44:57;16.92;;;10.07;;
77099;SDS011;66602;48.922;2.414;2023-09-12T04:47:22;12.82;;;10.35;;
77099;SDS011;66602;48.922;2.414;2023-09-12T04:49:48;12.38;;;10.60;;
77099;SDS011;66602;48.922;2.414;2023-09-12T04:52:14;11.15;;;10.15;;
77099;SDS011;66602;48.922;2.414;2023-09-12T04:54:39;13.13;;;10.70;;
77099;SDS011;66602;48.922;2.414;2023-09-12T04:57:05;13.38;;;10.90;;
77099;SDS011;66602;48.922;2.414;2023-09-12T04:59:30;19.40;;;11.23;;
77099;SDS011;66602;48.922;2.414;2023-09-12T05:01:56;12.63;;;10.77;;
77099;SDS011;66602;48.922;2.414;2023-09-12T05:04:21;12.23;;;10.23;;
77099;SDS011;66602;48.922;2.414;2023-09-12T05:06:47;12.00;;;10.90;;
77099;SDS011;66602;48.922;2.414;2023-09-12T05:09:12;12.10;;;10.90;;
77099;SDS011;66602;48.922;2.414;2023-09-12T05:11:38;13.43;;;10.93;;
77099;SDS011;66602;48.922;2.414;2023-09-12T05:14:04;11.48;;;10.18;;
77099;SDS011;66602;48.922;2.414;2023-09-12T05:16:29;10.70;;;9.70;;
77099;SDS011;66602;48.922;2.414;2023-09-12T05:18:55;14.50;;;11.38;;
77099;SDS011;66602;48.922;2.414;2023-09-12T05:21:21;17.17;;;10.52;;
77099;SDS011;66602;48.922;2.414;2023-09-12T05:23:46;18.30;;;10.90;;
77099;SDS011;66602;48.922;2.414;2023-09-12T05:26:12;18.13;;;10.32;;
77099;SDS011;66602;48.922;2.414;2023-09-12T05:28:37;12.57;;;9.93;;
77099;SDS011;66602;48.922;2.414;2023-09-12T05:31:03;13.38;;;9.30;;
77099;SDS011;66602;48.922;2.414;2023-09-12T05:33:28;18.05;;;11.27;;
77099;SDS011;66602;48.922;2.414;2023-09-12T05:35:54;19.67;;;11.15;;
77099;SDS011;66602;48.922;2.414;2023-09-12T05:38:19;14.43;;;10.93;;
77099;SDS011;66602;48.922;2.414;2023-09-12T05:40:45;14.23;;;10.23;;
77099;SDS011;66602;48.922;2.414;2023-09-12T05:43:11;16.45;;;11.90;;
77099;SDS011;66602;48.922;2.414;2023-09-12T05:45:37;11.30;;;10.35;;
77099;SDS011;66602;48.922;2.414;2023-09-12T05:48:03;14.75;;;10.93;;
77099;SDS011;66602;48.922;2.414;2023-09-12T05:50:29;19.73;;;11.25;;
77099;SDS011;66602;48.922;2.414;2023-09-12T05:52:55;18.00;;;11.82;;
77099;SDS011;66602;48.922;2.414;2023-09-12T05:55:20;14.32;;;10.38;;
77099;SDS011;66602;48.922;2.414;2023-09-12T05:57:46;16.42;;;10.82;;
77099;SDS011;66602;48.922;2.414;2023-09-12T06:00:13;10.70;;;9.15;;
77099;SDS011;66602;48.922;2.414;2023-09-12T06:02:40;13.02;;;10.15;;
77099;SDS011;66602;48.922;2.414;2023-09-12T06:05:07;24.83;;;11.90;;
77099;SDS011;66602;48.922;2.414;2023-09-12T06:07:32;16.45;;;11.40;;
77099;SDS011;66602;48.922;2.414;2023-09-12T06:09:58;11.88;;;10.90;;
77099;SDS011;66602;48.922;2.414;2023-09-12T06:12:24;12.80;;;11.05;;
77099;SDS011;66602;48.922;2.414;2023-09-12T06:14:49;14.70;;;12.07;;
77099;SDS011;66602;48.922;2.414;2023-09-12T06:17:15;13.43;;;11.55;;
77099;SDS011;66602;48.922;2.414;2023-09-12T06:19:41;16.38;;;10.98;;
77099;SDS011;66602;48.922;2.414;2023-09-12T06:22:06;13.18;;;10.75;;
77099;SDS011;66602;48.922;2.414;2023-09-12T06:24:32;18.08;;;10.95;;
77099;SDS011;66602;48.922;2.414;2023-09-12T06:26:57;16.63;;;9.88;;
77099;SDS011;66602;48.922;2.414;2023-09-12T06:29:23;17.40;;;10.25;;
77099;SDS011;66602;48.922;2.414;2023-09-12T06:31:48;10.60;;;9.50;;
77099;SDS011;66602;48.922;2.414;2023-09-12T06:34:14;15.02;;;10.68;;
77099;SDS011;66602;48.922;2.414;2023-09-12T06:36:39;12.05;;;9.18;;
77099;SDS011;66602;48.922;2.414;2023-09-12T06:39:09;11.82;;;10.20;;
77099;SDS011;66602;48.922;2.414;2023-09-12T06:41:35;13.95;;;11.35;;
77099;SDS011;66602;48.922;2.414;2023-09-12T06:44:00;13.35;;;11.50;;
77099;SDS011;66602;48.922;2.414;2023-09-12T06:46:28;16.40;;;11.25;;
77099;SDS011;66602;48.922;2.414;2023-09-12T06:48:53;12.70;;;10.30;;
77099;SDS011;66602;48.922;2.414;2023-09-12T06:51:22;12.02;;;9.93;;
77099;SDS011;66602;48.922;2.414;2023-09-12T06:53:49;17.88;;;9.82;;
77099;SDS011;66602;48.922;2.414;2023-09-12T06:56:15;14.07;;;9.95;;
77099;SDS011;66602;48.922;2.414;2023-09-12T06:58:40;13.43;;;10.85;;
77099;SDS011;66602;48.922;2.414;2023-09-12T07:01:06;11.32;;;10.30;;
77099;SDS011;66602;48.922;2.414;2023-09-12T07:03:33;12.48;;;9.40;;
77099;SDS011;66602;48.922;2.414;2023-09-12T07:05:59;15.38;;;9.48;;
77099;SDS011;66602;48.922;2.414;2023-09-12T07:08:25;10.45;;;8.75;;
77099;SDS011;66602;48.922;2.414;2023-09-12T07:10:51;14.32;;;9.05;;
77099;SDS011;66602;48.922;2.414;2023-09-12T07:13:19;12.77;;;9.65;;
77099;SDS011;66602;48.922;2.414;2023-09-12T07:15:46;9.88;;;8.02;;
77099;SDS011;66602;48.922;2.414;2023-09-12T07:18:12;16.55;;;9.27;;
77099;SDS011;66602;48.922;2.414;2023-09-12T07:20:40;19.38;;;9.73;;
77099;SDS011;66602;48.922;2.414;2023-09-12T07:23:05;14.40;;;10.35;;
77099;SDS011;66602;48.922;2.414;2023-09-12T07:25:35;14.68;;;9.82;;
77099;SDS011;66602;48.922;2.414;2023-09-12T07:28:05;10.70;;;9.57;;
77099;SDS011;66602;48.922;2.414;2023-09-12T07:30:30;11.90;;;9.45;;
77099;SDS011;66602;48.922;2.414;2023-09-12T07:32:56;11.93;;;10.70;;
77099;SDS011;66602;48.922;2.414;2023-09-12T07:35:21;21.48;;;10.85;;
77099;SDS011;66602;48.922;2.414;2023-09-12T07:37:49;17.88;;;11.32;;
77099;SDS011;66602;48.922;2.414;2023-09-12T07:40:15;12.05;;;10.95;;
77099;SDS011;66602;48.922;2.414;2023-09-12T07:42:40;11.43;;;10.38;;
77099;SDS011;66602;48.922;2.414;2023-09-12T07:45:06;11.48;;;10.43;;
77099;SDS011;66602;48.922;2.414;2023-09-12T07:47:32;12.32;;;10.35;;
77099;SDS011;66602;48.922;2.414;2023-09-12T07:49:58;20.38;;;11.13;;
77099;SDS011;66602;48.922;2.414;2023-09-12T07:52:25;10.43;;;9.23;;
77099;SDS011;66602;48.922;2.414;2023-09-12T07:54:51;9.15;;;8.35;;
77099;SDS011;66602;48.922;2.414;2023-09-12T07:57:22;9.93;;;8.70;;
77099;SDS011;66602;48.922;2.414;2023-09-12T07:59:48;23.55;;;9.00;;
77099;SDS011;66602;48.922;2.414;2023-09-12T08:02:14;18.33;;;11.45;;
77099;SDS011;66602;48.922;2.414;2023-09-12T08:04:39;8.18;;;7.38;;
77099;SDS011;66602;48.922;2.414;2023-09-12T08:07:05;17.92;;;7.28;;
77099;SDS011;66602;48.922;2.414;2023-09-12T08:10:12;9.25;;;8.30;;
77099;SDS011;66602;48.922;2.414;2023-09-12T08:12:20;10.07;;;6.90;;
77099;SDS011;66602;48.922;2.414;2023-09-12T08:14:47;10.15;;;7.15;;
77099;SDS011;66602;48.922;2.414;2023-09-12T08:17:12;11.13;;;7.47;;
77099;SDS011;66602;48.922;2.414;2023-09-12T08:19:38;6.53;;;5.93;;
77099;SDS011;66602;48.922;2.414;2023-09-12T08:22:05;9.82;;;6.88;;
77099;SDS011;66602;48.922;2.414;2023-09-12T08:24:31;6.85;;;6.25;;
77099;SDS011;66602;48.922;2.414;2023-09-12T08:26:57;10.10;;;6.68;;
77099;SDS011;66602;48.922;2.414;2023-09-12T08:29:22;7.20;;;6.28;;
77099;SDS011;66602;48.922;2.414;2023-09-12T08:31:47;18.00;;;7.32;;
77099;SDS011;66602;48.922;2.414;2023-09-12T08:34:13;7.40;;;5.90;;
77099;SDS011;66602;48.922;2.414;2023-09-12T08:36:39;10.65;;;6.40;;
77099;SDS011;66602;48.922;2.414;2023-09-12T08:39:05;6.88;;;5.82;;
77099;SDS011;66602;48.922;2.414;2023-09-12T08:41:33;6.00;;;5.60;;
77099;SDS011;66602;48.922;2.414;2023-09-12T08:43:59;9.48;;;5.95;;
77099;SDS011;66602;48.922;2.414;2023-09-12T08:46:26;10.07;;;6.22;;
77099;SDS011;66602;48.922;2.414;2023-09-12T08:48:53;6.80;;;6.00;;
77099;SDS011;66602;48.922;2.414;2023-09-12T08:51:22;7.78;;;5.35;;
77099;SDS011;66602;48.922;2.414;2023-09-12T08:53:49;9.75;;;6.00;;
77099;SDS011;66602;48.922;2.414;2023-09-12T08:56:15;10.02;;;6.10;;
77099;SDS011;66602;48.922;2.414;2023-09-12T08:58:42;9.23;;;6.15;;
77099;SDS011;66602;48.922;2.414;2023-09-12T09:01:08;9.30;;;5.90;;
77099;SDS011;66602;48.922;2.414;2023-09-12T09:03:36;9.38;;;5.40;;
77099;SDS011;66602;48.922;2.414;2023-09-12T09:06:03;5.80;;;5.30;;
77099;SDS011;66602;48.922;2.414;2023-09-12T09:08:30;9.02;;;5.63;;
77099;SDS011;66602;48.922;2.414;2023-09-12T09:13:23;6.03;;;5.55;;
77099;SDS011;66602;48.922;2.414;2023-09-12T09:15:48;10.32;;;6.00;;
77099;SDS011;66602;48.922;2.414;2023-09-12T09:18:14;8.35;;;5.53;;
77099;SDS011;66602;48.922;2.414;2023-09-12T09:20:39;12.90;;;5.22;;
77099;SDS011;66602;48.922;2.414;2023-09-12T09:23:06;8.55;;;5.30;;
77099;SDS011;66602;48.922;2.414;2023-09-12T09:25:39;7.88;;;5.00;;
77099;SDS011;66602;48.922;2.414;2023-09-12T09:28:27;5.32;;;4.90;;
77099;SDS011;66602;48.922;2.414;2023-09-12T09:30:51;11.73;;;5.22;;
77099;SDS011;66602;48.922;2.414;2023-09-12T09:33:19;8.77;;;5.03;;
77099;SDS011;66602;48.922;2.414;2023-09-12T09:35:45;4.88;;;4.45;;
77099;SDS011;66602;48.922;2.414;2023-09-12T09:38:12;5.70;;;4.07;;
77099;SDS011;66602;48.922;2.414;2023-09-12T09:40:44;9.27;;;4.10;;
77099;SDS011;66602;48.922;2.414;2023-09-12T09:43:10;5.07;;;4.57;;
77099;SDS011;66602;48.922;2.414;2023-09-12T09:45:42;8.93;;;4.03;;
77099;SDS011;66602;48.922;2.414;2023-09-12T09:48:21;5.35;;;4.07;;
77099;SDS011;66602;48.922;2.414;2023-09-12T09:51:03;11.45;;;4.32;;
77099;SDS011;66602;48.922;2.414;2023-09-12T09:53:29;4.50;;;3.75;;
77099;SDS011;66602;48.922;2.414;2023-09-12T09:56:10;10.48;;;3.75;;
77099;SDS011;66602;48.922;2.414;2023-09-12T09:58:36;9.88;;;3.47;;
77099;SDS011;66602;48.922;2.414;2023-09-12T10:01:07;9.45;;;3.95;;
77099;SDS011;66602;48.922;2.414;2023-09-12T10:03:34;5.47;;;4.35;;
77099;SDS011;66602;48.922;2.414;2023-09-12T10:06:02;22.35;;;6.57;;
77099;SDS011;66602;48.922;2.414;2023-09-12T10:08:29;7.03;;;6.18;;
77099;SDS011;66602;48.922;2.414;2023-09-12T10:10:57;14.38;;;7.28;;
77099;SDS011;66602;48.922;2.414;2023-09-12T10:13:24;16.42;;;8.95;;
77099;SDS011;66602;48.922;2.414;2023-09-12T10:15:56;25.88;;;12.07;;
77099;SDS011;66602;48.922;2.414;2023-09-12T10:18:23;19.30;;;11.85;;
77099;SDS011;66602;48.922;2.414;2023-09-12T10:20:58;18.35;;;12.15;;
77099;SDS011;66602;48.922;2.414;2023-09-12T10:26:02;22.40;;;11.38;;
77099;SDS011;66602;48.922;2.414;2023-09-12T10:28:29;22.23;;;12.73;;
77099;SDS011;66602;48.922;2.414;2023-09-12T10:30:57;25.08;;;13.60;;
77099;SDS011;66602;48.922;2.414;2023-09-12T10:33:23;32.97;;;15.35;;
77099;SDS011;66602;48.922;2.414;2023-09-12T10:35:50;29.73;;;14.57;;
77099;SDS011;66602;48.922;2.414;2023-09-12T10:38:16;29.50;;;14.68;;
77099;SDS011;66602;48.922;2.414;2023-09-12T10:40:45;28.85;;;14.35;;
77099;SDS011;66602;48.922;2.414;2023-09-12T10:43:12;32.40;;;16.25;;
77099;SDS011;66602;48.922;2.414;2023-09-12T10:45:39;28.48;;;16.30;;
77099;SDS011;66602;48.922;2.414;2023-09-12T10:48:06;27.98;;;15.48;;
77099;SDS011;66602;48.922;2.414;2023-09-12T10:50:34;26.75;;;15.02;;
77099;SDS011;66602;48.922;2.414;2023-09-12T10:53:10;30.50;;;17.02;;
77099;SDS011;66602;48.922;2.414;2023-09-12T10:55:36;32.15;;;16.13;;
77099;SDS011;66602;48.922;2.414;2023-09-12T10:58:07;25.67;;;13.60;;
77099;SDS011;66602;48.922;2.414;2023-09-12T11:00:33;18.42;;;12.32;;
77099;SDS011;66602;48.922;2.414;2023-09-12T11:03:44;23.25;;;13.68;;
77099;SDS011;66602;48.922;2.414;2023-09-12T11:05:54;28.52;;;14.50;;
77099;SDS011;66602;48.922;2.414;2023-09-12T11:08:21;22.95;;;13.73;;
77099;SDS011;66602;48.922;2.414;2023-09-12T11:13:42;24.23;;;12.00;;
77099;SDS011;66602;48.922;2.414;2023-09-12T11:16:14;24.48;;;12.65;;
77099;SDS011;66602;48.922;2.414;2023-09-12T11:21:46;20.42;;;13.50;;
77099;SDS011;66602;48.922;2.414;2023-09-12T11:24:14;21.08;;;12.18;;
77099;SDS011;66602;48.922;2.414;2023-09-12T11:27:00;17.67;;;10.85;;
77099;SDS011;66602;48.922;2.414;2023-09-12T11:29:39;23.80;;;11.82;;
77099;SDS011;66602;48.922;2.414;2023-09-12T11:32:06;18.98;;;11.93;;
77099;SDS011;66602;48.922;2.414;2023-09-12T11:34:40;19.92;;;14.27;;
77099;SDS011;66602;48.922;2.414;2023-09-12T11:37:07;24.70;;;14.02;;
77099;SDS011;66602;48.922;2.414;2023-09-12T11:39:33;20.17;;;13.88;;
77099;SDS011;66602;48.922;2.414;2023-09-12T11:42:01;12.20;;;11.00;;
77099;SDS011;66602;48.922;2.414;2023-09-12T11:44:29;19.65;;;11.45;;
77099;SDS011;66602;48.922;2.414;2023-09-12T11:46:56;9.50;;;8.57;;
77099;SDS011;66602;48.922;2.414;2023-09-12T11:49:28;9.48;;;7.50;;
77099;SDS011;66602;48.922;2.414;2023-09-12T11:52:01;9.38;;;8.32;;
77099;SDS011;66602;48.922;2.414;2023-09-12T11:54:28;10.07;;;9.05;;
77099;SDS011;66602;48.922;2.414;2023-09-12T11:56:56;13.80;;;9.68;;
77099;SDS011;66602;48.922;2.414;2023-09-12T11:59:24;11.20;;;9.48;;
77099;SDS011;66602;48.922;2.414;2023-09-12T12:01:54;11.98;;;8.80;;
77099;SDS011;66602;48.922;2.414;2023-09-12T12:04:20;8.88;;;8.07;;
77099;SDS011;66602;48.922;2.414;2023-09-12T12:06:47;6.93;;;6.30;;
77099;SDS011;66602;48.922;2.414;2023-09-12T12:09:13;6.68;;;6.15;;
77099;SDS011;66602;48.922;2.414;2023-09-12T12:11:41;6.63;;;6.20;;
77099;SDS011;66602;48.922;2.414;2023-09-12T12:14:11;5.82;;;5.40;;
77099;SDS011;66602;48.922;2.414;2023-09-12T12:16:44;5.93;;;5.50;;
77099;SDS011;66602;48.922;2.414;2023-09-12T12:19:12;6.30;;;5.65;;
77099;SDS011;66602;48.922;2.414;2023-09-12T12:21:39;6.28;;;5.78;;
77099;SDS011;66602;48.922;2.414;2023-09-12T12:24:07;5.78;;;5.43;;
77099;SDS011;66602;48.922;2.414;2023-09-12T12:26:34;6.38;;;5.30;;
77099;SDS011;66602;48.922;2.414;2023-09-12T12:29:00;5.22;;;4.82;;
77099;SDS011;66602;48.922;2.414;2023-09-12T12:31:26;4.85;;;4.55;;
77099;SDS011;66602;48.922;2.414;2023-09-12T12:33:52;5.28;;;4.30;;
77099;SDS011;66602;48.922;2.414;2023-09-12T12:36:18;6.13;;;4.47;;
77099;SDS011;66602;48.922;2.414;2023-09-12T12:38:45;6.50;;;3.90;;
77099;SDS011;66602;48.922;2.414;2023-09-12T12:41:16;3.97;;;3.60;;
77099;SDS011;66602;48.922;2.414;2023-09-12T12:43:49;4.03;;;3.53;;
77099;SDS011;66602;48.922;2.414;2023-09-12T12:46:16;4.15;;;3.30;;
77099;SDS011;66602;48.922;2.414;2023-09-12T12:48:44;3.65;;;3.45;;
77099;SDS011;66602;48.922;2.414;2023-09-12T12:53:48;4.22;;;3.80;;
77099;SDS011;66602;48.922;2.414;2023-09-12T12:56:17;4.80;;;4.05;;
77099;SDS011;66602;48.922;2.414;2023-09-12T12:58:50;3.80;;;3.50;;
77099;SDS011;66602;48.922;2.414;2023-09-12T13:01:17;4.53;;;4.07;;
77099;SDS011;66602;48.922;2.414;2023-09-12T13:03:43;4.10;;;3.75;;
77099;SDS011;66602;48.922;2.414;2023-09-12T13:06:10;3.80;;;3.50;;
77099;SDS011;66602;48.922;2.414;2023-09-12T13:08:40;4.28;;;3.50;;
77099;SDS011;66602;48.922;2.414;2023-09-12T13:11:06;4.20;;;3.90;;
77099;SDS011;66602;48.922;2.414;2023-09-12T13:13:32;3.78;;;3.58;;
77099;SDS011;66602;48.922;2.414;2023-09-12T13:15:58;6.18;;;5.88;;
77099;SDS011;66602;48.922;2.414;2023-09-12T13:18:23;3.83;;;3.50;;
77099;SDS011;66602;48.922;2.414;2023-09-12T13:20:50;5.57;;;5.22;;
77099;SDS011;66602;48.922;2.414;2023-09-12T13:23:15;3.58;;;3.28;;
77099;SDS011;66602;48.922;2.414;2023-09-12T13:25:40;3.13;;;2.92;;
77099;SDS011;66602;48.922;2.414;2023-09-12T13:28:06;5.15;;;3.72;;
77099;SDS011;66602;48.922;2.414;2023-09-12T13:30:31;4.60;;;4.00;;
77099;SDS011;66602;48.922;2.414;2023-09-12T13:32:57;5.20;;;4.07;;
77099;SDS011;66602;48.922;2.414;2023-09-12T13:35:22;4.88;;;3.92;;
77099;SDS011;66602;48.922;2.414;2023-09-12T13:37:48;4.53;;;4.13;;
77099;SDS011;66602;48.922;2.414;2023-09-12T13:40:13;4.63;;;4.25;;
77099;SDS011;66602;48.922;2.414;2023-09-12T13:42:39;4.30;;;4.03;;
77099;SDS011;66602;48.922;2.414;2023-09-12T13:45:04;3.72;;;3.53;;
77099;SDS011;66602;48.922;2.414;2023-09-12T13:47:30;5.00;;;4.20;;
77099;SDS011;66602;48.922;2.414;2023-09-12T13:49:57;4.30;;;4.00;;
77099;SDS011;66602;48.922;2.414;2023-09-12T13:52:26;5.18;;;4.80;;
77099;SDS011;66602;48.922;2.414;2023-09-12T13:54:52;5.45;;;4.60;;
77099;SDS011;66602;48.922;2.414;2023-09-12T13:57:18;5.80;;;5.30;;
77099;SDS011;66602;48.922;2.414;2023-09-12T13:59:43;5.97;;;5.38;;
77099;SDS011;66602;48.922;2.414;2023-09-12T14:02:09;5.28;;;4.88;;
77099;SDS011;66602;48.922;2.414;2023-09-12T14:04:35;7.00;;;5.43;;
77099;SDS011;66602;48.922;2.414;2023-09-12T14:07:00;5.47;;;5.15;;
77099;SDS011;66602;48.922;2.414;2023-09-12T14:09:27;5.65;;;4.88;;
77099;SDS011;66602;48.922;2.414;2023-09-12T14:11:53;5.13;;;4.82;;
77099;SDS011;66602;48.922;2.414;2023-09-12T14:14:19;4.85;;;4.45;;
77099;SDS011;66602;48.922;2.414;2023-09-12T14:16:44;7.53;;;5.32;;
77099;SDS011;66602;48.922;2.414;2023-09-12T14:19:10;8.00;;;5.13;;
77099;SDS011;66602;48.922;2.414;2023-09-12T14:21:36;6.95;;;4.75;;
77099;SDS011;66602;48.922;2.414;2023-09-12T14:24:03;5.53;;;5.20;;
77099;SDS011;66602;48.922;2.414;2023-09-12T14:26:29;5.93;;;5.35;;
77099;SDS011;66602;48.922;2.414;2023-09-12T14:28:55;5.35;;;4.95;;
77099;SDS011;66602;48.922;2.414;2023-09-12T14:31:21;6.90;;;6.40;;
77099;SDS011;66602;48.922;2.414;2023-09-12T14:33:48;6.80;;;5.55;;
77099;SDS011;66602;48.922;2.414;2023-09-12T14:36:14;5.80;;;5.30;;
77099;SDS011;66602;48.922;2.414;2023-09-12T14:38:39;6.50;;;5.90;;
77099;SDS011;66602;48.922;2.414;2023-09-12T14:41:05;7.28;;;6.70;;
77099;SDS011;66602;48.922;2.414;2023-09-12T14:43:30;7.10;;;6.07;;
77099;SDS011;66602;48.922;2.414;2023-09-12T14:45:56;7.75;;;6.90;;
77099;SDS011;66602;48.922;2.414;2023-09-12T14:48:23;6.20;;;5.57;;
77099;SDS011;66602;48.922;2.414;2023-09-12T14:50:48;6.85;;;6.40;;